sensor_id;sensor_type;location;lat;lon;timestamp;P1;durP1;ratioP1;P2;durP2;ratioP2
13560;SDS011;6852;51.686;5.314;2023-04-24T00:01:21;14.57;;;10.20;;
13560;SDS011;6852;51.686;5.314;2023-04-24T00:03:48;14.30;;;10.97;;
13560;SDS011;6852;51.686;5.314;2023-04-24T00:06:15;16.07;;;11.17;;
13560;SDS011;6852;51.686;5.314;2023-04-24T00:08:43;18.17;;;11.43;;
13560;SDS011;6852;51.686;5.314;2023-04-24T00:11:10;19.40;;;12.10;;
13560;SDS011;6852;51.686;5.314;2023-04-24T00:13:37;19.83;;;13.17;;
13560;SDS011;6852;51.686;5.314;2023-04-24T00:16:04;21.57;;;13.23;;
13560;SDS011;6852;51.686;5.314;2023-04-24T00:18:32;22.80;;;13.03;;
13560;SDS011;6852;51.686;5.314;2023-04-24T00:20:59;20.40;;;13.47;;
13560;SDS011;6852;51.686;5.314;2023-04-24T00:23:26;19.30;;;13.47;;
13560;SDS011;6852;51.686;5.314;2023-04-24T00:25:53;18.83;;;12.60;;
13560;SDS011;6852;51.686;5.314;2023-04-24T00:28:20;18.70;;;12.67;;
13560;SDS011;6852;51.686;5.314;2023-04-24T00:30:46;15.90;;;12.07;;
13560;SDS011;6852;51.686;5.314;2023-04-24T00:33:13;16.50;;;11.53;;
13560;SDS011;6852;51.686;5.314;2023-04-24T00:35:41;18.13;;;12.37;;
13560;SDS011;6852;51.686;5.314;2023-04-24T00:38:07;16.63;;;12.00;;
13560;SDS011;6852;51.686;5.314;2023-04-24T00:40:34;15.70;;;11.80;;
13560;SDS011;6852;51.686;5.314;2023-04-24T00:43:01;18.67;;;11.83;;
13560;SDS011;6852;51.686;5.314;2023-04-24T00:45:28;16.90;;;11.13;;
13560;SDS011;6852;51.686;5.314;2023-04-24T00:47:57;15.43;;;11.47;;
13560;SDS011;6852;51.686;5.314;2023-04-24T00:50:24;14.70;;;11.20;;
13560;SDS011;6852;51.686;5.314;2023-04-24T00:52:52;17.80;;;11.87;;
13560;SDS011;6852;51.686;5.314;2023-04-24T00:55:19;16.10;;;11.80;;
13560;SDS011;6852;51.686;5.314;2023-04-24T00:57:46;15.97;;;11.70;;
13560;SDS011;6852;51.686;5.314;2023-04-24T01:00:15;15.13;;;11.43;;
13560;SDS011;6852;51.686;5.314;2023-04-24T01:02:43;15.43;;;11.90;;
13560;SDS011;6852;51.686;5.314;2023-04-24T01:05:12;14.97;;;11.87;;
13560;SDS011;6852;51.686;5.314;2023-04-24T01:07:40;17.27;;;12.73;;
13560;SDS011;6852;51.686;5.314;2023-04-24T01:10:10;18.37;;;13.53;;
13560;SDS011;6852;51.686;5.314;2023-04-24T01:12:38;17.67;;;13.33;;
13560;SDS011;6852;51.686;5.314;2023-04-24T01:15:06;19.80;;;14.50;;
13560;SDS011;6852;51.686;5.314;2023-04-24T01:17:33;19.67;;;14.80;;
13560;SDS011;6852;51.686;5.314;2023-04-24T01:20:00;22.40;;;15.30;;
13560;SDS011;6852;51.686;5.314;2023-04-24T01:22:28;23.90;;;17.00;;
13560;SDS011;6852;51.686;5.314;2023-04-24T01:24:55;24.17;;;17.27;;
13560;SDS011;6852;51.686;5.314;2023-04-24T01:27:22;25.13;;;17.10;;
13560;SDS011;6852;51.686;5.314;2023-04-24T01:29:49;22.07;;;16.10;;
13560;SDS011;6852;51.686;5.314;2023-04-24T01:32:18;26.87;;;16.43;;
13560;SDS011;6852;51.686;5.314;2023-04-24T01:34:46;22.10;;;15.60;;
13560;SDS011;6852;51.686;5.314;2023-04-24T01:37:13;26.17;;;17.07;;
13560;SDS011;6852;51.686;5.314;2023-04-24T01:39:42;22.13;;;15.80;;
13560;SDS011;6852;51.686;5.314;2023-04-24T01:42:10;24.83;;;15.30;;
13560;SDS011;6852;51.686;5.314;2023-04-24T01:44:38;20.50;;;14.67;;
13560;SDS011;6852;51.686;5.314;2023-04-24T01:47:05;24.43;;;15.03;;
13560;SDS011;6852;51.686;5.314;2023-04-24T01:49:32;19.10;;;14.37;;
13560;SDS011;6852;51.686;5.314;2023-04-24T01:51:59;20.60;;;15.57;;
13560;SDS011;6852;51.686;5.314;2023-04-24T01:54:26;27.07;;;17.27;;
13560;SDS011;6852;51.686;5.314;2023-04-24T01:56:53;24.07;;;15.67;;
13560;SDS011;6852;51.686;5.314;2023-04-24T01:59:20;25.40;;;16.50;;
13560;SDS011;6852;51.686;5.314;2023-04-24T02:01:48;21.23;;;16.77;;
13560;SDS011;6852;51.686;5.314;2023-04-24T02:04:14;21.40;;;16.40;;
13560;SDS011;6852;51.686;5.314;2023-04-24T02:06:42;24.13;;;16.63;;
13560;SDS011;6852;51.686;5.314;2023-04-24T02:09:08;23.83;;;16.07;;
13560;SDS011;6852;51.686;5.314;2023-04-24T02:11:36;22.13;;;14.63;;
13560;SDS011;6852;51.686;5.314;2023-04-24T02:14:03;24.73;;;15.47;;
13560;SDS011;6852;51.686;5.314;2023-04-24T02:16:30;24.47;;;16.33;;
13560;SDS011;6852;51.686;5.314;2023-04-24T02:18:59;23.57;;;16.40;;
13560;SDS011;6852;51.686;5.314;2023-04-24T02:21:26;24.57;;;16.03;;
13560;SDS011;6852;51.686;5.314;2023-04-24T02:23:54;23.30;;;15.87;;
13560;SDS011;6852;51.686;5.314;2023-04-24T02:26:21;23.40;;;16.57;;
13560;SDS011;6852;51.686;5.314;2023-04-24T02:28:48;31.03;;;18.47;;
13560;SDS011;6852;51.686;5.314;2023-04-24T02:31:15;28.10;;;17.03;;
13560;SDS011;6852;51.686;5.314;2023-04-24T02:33:41;29.47;;;16.70;;
13560;SDS011;6852;51.686;5.314;2023-04-24T02:36:08;25.00;;;16.63;;
13560;SDS011;6852;51.686;5.314;2023-04-24T02:38:35;23.50;;;15.23;;
13560;SDS011;6852;51.686;5.314;2023-04-24T02:41:02;25.80;;;16.77;;
13560;SDS011;6852;51.686;5.314;2023-04-24T02:43:32;25.97;;;16.20;;
13560;SDS011;6852;51.686;5.314;2023-04-24T02:45:59;23.13;;;16.83;;
13560;SDS011;6852;51.686;5.314;2023-04-24T02:48:26;26.47;;;18.20;;
13560;SDS011;6852;51.686;5.314;2023-04-24T02:50:54;27.77;;;18.50;;
13560;SDS011;6852;51.686;5.314;2023-04-24T02:53:21;26.20;;;18.73;;
13560;SDS011;6852;51.686;5.314;2023-04-24T02:55:47;30.37;;;18.70;;
13560;SDS011;6852;51.686;5.314;2023-04-24T02:58:14;27.77;;;19.93;;
13560;SDS011;6852;51.686;5.314;2023-04-24T03:00:41;24.63;;;17.83;;
13560;SDS011;6852;51.686;5.314;2023-04-24T03:03:09;28.00;;;17.60;;
13560;SDS011;6852;51.686;5.314;2023-04-24T03:05:36;26.93;;;16.67;;
13560;SDS011;6852;51.686;5.314;2023-04-24T03:08:03;22.00;;;15.47;;
13560;SDS011;6852;51.686;5.314;2023-04-24T03:10:31;20.87;;;15.17;;
13560;SDS011;6852;51.686;5.314;2023-04-24T03:12:58;25.23;;;15.60;;
13560;SDS011;6852;51.686;5.314;2023-04-24T03:15:25;20.23;;;14.87;;
13560;SDS011;6852;51.686;5.314;2023-04-24T03:17:52;19.80;;;13.80;;
13560;SDS011;6852;51.686;5.314;2023-04-24T03:20:22;24.63;;;14.87;;
13560;SDS011;6852;51.686;5.314;2023-04-24T03:22:49;22.93;;;14.73;;
13560;SDS011;6852;51.686;5.314;2023-04-24T03:25:16;22.57;;;14.60;;
13560;SDS011;6852;51.686;5.314;2023-04-24T03:27:43;23.77;;;14.30;;
13560;SDS011;6852;51.686;5.314;2023-04-24T03:30:10;23.70;;;14.93;;
13560;SDS011;6852;51.686;5.314;2023-04-24T03:32:37;22.57;;;14.53;;
13560;SDS011;6852;51.686;5.314;2023-04-24T03:35:06;24.03;;;15.30;;
13560;SDS011;6852;51.686;5.314;2023-04-24T03:37:34;22.50;;;15.17;;
13560;SDS011;6852;51.686;5.314;2023-04-24T03:40:02;20.67;;;14.87;;
13560;SDS011;6852;51.686;5.314;2023-04-24T03:42:29;20.90;;;14.50;;
13560;SDS011;6852;51.686;5.314;2023-04-24T03:44:56;22.00;;;15.57;;
13560;SDS011;6852;51.686;5.314;2023-04-24T03:47:23;27.07;;;15.37;;
13560;SDS011;6852;51.686;5.314;2023-04-24T03:49:49;23.03;;;14.40;;
13560;SDS011;6852;51.686;5.314;2023-04-24T03:52:17;21.57;;;15.00;;
13560;SDS011;6852;51.686;5.314;2023-04-24T03:54:44;20.67;;;14.87;;
13560;SDS011;6852;51.686;5.314;2023-04-24T03:57:11;23.53;;;14.87;;
13560;SDS011;6852;51.686;5.314;2023-04-24T03:59:37;22.77;;;14.00;;
13560;SDS011;6852;51.686;5.314;2023-04-24T04:02:04;22.80;;;15.37;;
13560;SDS011;6852;51.686;5.314;2023-04-24T04:04:31;18.93;;;14.90;;
13560;SDS011;6852;51.686;5.314;2023-04-24T04:06:59;22.60;;;15.00;;
13560;SDS011;6852;51.686;5.314;2023-04-24T04:09:29;19.77;;;14.07;;
13560;SDS011;6852;51.686;5.314;2023-04-24T04:11:56;19.77;;;14.13;;
13560;SDS011;6852;51.686;5.314;2023-04-24T04:14:22;19.07;;;14.40;;
13560;SDS011;6852;51.686;5.314;2023-04-24T04:16:49;19.07;;;12.97;;
13560;SDS011;6852;51.686;5.314;2023-04-24T04:19:20;16.30;;;12.80;;
13560;SDS011;6852;51.686;5.314;2023-04-24T04:21:47;20.10;;;13.23;;
13560;SDS011;6852;51.686;5.314;2023-04-24T04:24:19;16.57;;;12.33;;
13560;SDS011;6852;51.686;5.314;2023-04-24T04:26:50;16.73;;;11.90;;
13560;SDS011;6852;51.686;5.314;2023-04-24T04:29:18;17.33;;;11.83;;
13560;SDS011;6852;51.686;5.314;2023-04-24T04:31:45;16.33;;;10.80;;
13560;SDS011;6852;51.686;5.314;2023-04-24T04:34:12;19.57;;;12.13;;
13560;SDS011;6852;51.686;5.314;2023-04-24T04:36:40;17.23;;;12.27;;
13560;SDS011;6852;51.686;5.314;2023-04-24T04:39:07;16.00;;;11.57;;
13560;SDS011;6852;51.686;5.314;2023-04-24T04:41:34;15.83;;;10.77;;
13560;SDS011;6852;51.686;5.314;2023-04-24T04:44:01;11.27;;;8.97;;
13560;SDS011;6852;51.686;5.314;2023-04-24T04:46:31;14.63;;;8.07;;
13560;SDS011;6852;51.686;5.314;2023-04-24T04:49:03;10.73;;;7.80;;
13560;SDS011;6852;51.686;5.314;2023-04-24T04:51:30;9.00;;;6.60;;
13560;SDS011;6852;51.686;5.314;2023-04-24T04:53:57;6.90;;;4.70;;
13560;SDS011;6852;51.686;5.314;2023-04-24T04:56:24;8.27;;;5.13;;
13560;SDS011;6852;51.686;5.314;2023-04-24T04:58:52;6.80;;;4.60;;
13560;SDS011;6852;51.686;5.314;2023-04-24T05:01:19;8.60;;;4.93;;
13560;SDS011;6852;51.686;5.314;2023-04-24T05:03:46;4.37;;;3.60;;
13560;SDS011;6852;51.686;5.314;2023-04-24T05:06:13;4.73;;;3.90;;
13560;SDS011;6852;51.686;5.314;2023-04-24T05:08:39;5.60;;;4.07;;
13560;SDS011;6852;51.686;5.314;2023-04-24T05:11:07;5.20;;;3.80;;
13560;SDS011;6852;51.686;5.314;2023-04-24T05:13:33;7.30;;;3.93;;
13560;SDS011;6852;51.686;5.314;2023-04-24T05:16:06;6.17;;;4.80;;
13560;SDS011;6852;51.686;5.314;2023-04-24T05:18:33;6.23;;;4.50;;
13560;SDS011;6852;51.686;5.314;2023-04-24T05:21:00;5.93;;;4.83;;
13560;SDS011;6852;51.686;5.314;2023-04-24T05:23:27;7.87;;;4.50;;
13560;SDS011;6852;51.686;5.314;2023-04-24T05:25:54;6.37;;;4.80;;
13560;SDS011;6852;51.686;5.314;2023-04-24T05:28:21;8.80;;;4.87;;
13560;SDS011;6852;51.686;5.314;2023-04-24T05:30:48;7.20;;;5.07;;
13560;SDS011;6852;51.686;5.314;2023-04-24T05:33:15;4.67;;;3.33;;
13560;SDS011;6852;51.686;5.314;2023-04-24T05:35:42;4.93;;;3.27;;
13560;SDS011;6852;51.686;5.314;2023-04-24T05:38:13;3.77;;;3.37;;
13560;SDS011;6852;51.686;5.314;2023-04-24T05:40:43;3.10;;;2.77;;
13560;SDS011;6852;51.686;5.314;2023-04-24T05:43:10;4.03;;;2.30;;
13560;SDS011;6852;51.686;5.314;2023-04-24T05:45:37;2.50;;;2.30;;
13560;SDS011;6852;51.686;5.314;2023-04-24T05:48:04;2.20;;;1.87;;
13560;SDS011;6852;51.686;5.314;2023-04-24T05:50:32;2.40;;;1.67;;
13560;SDS011;6852;51.686;5.314;2023-04-24T05:53:02;3.67;;;2.17;;
13560;SDS011;6852;51.686;5.314;2023-04-24T05:55:30;2.00;;;1.63;;
13560;SDS011;6852;51.686;5.314;2023-04-24T05:57:57;1.97;;;1.60;;
13560;SDS011;6852;51.686;5.314;2023-04-24T06:00:24;3.63;;;2.30;;
13560;SDS011;6852;51.686;5.314;2023-04-24T06:02:52;2.17;;;1.93;;
13560;SDS011;6852;51.686;5.314;2023-04-24T06:05:19;2.07;;;1.80;;
13560;SDS011;6852;51.686;5.314;2023-04-24T06:07:47;2.57;;;1.40;;
13560;SDS011;6852;51.686;5.314;2023-04-24T06:10:14;2.03;;;1.60;;
13560;SDS011;6852;51.686;5.314;2023-04-24T06:12:41;3.07;;;1.30;;
13560;SDS011;6852;51.686;5.314;2023-04-24T06:15:08;2.17;;;1.70;;
13560;SDS011;6852;51.686;5.314;2023-04-24T06:17:35;3.23;;;1.67;;
13560;SDS011;6852;51.686;5.314;2023-04-24T06:20:02;4.83;;;2.40;;
13560;SDS011;6852;51.686;5.314;2023-04-24T06:22:31;5.20;;;2.50;;
13560;SDS011;6852;51.686;5.314;2023-04-24T06:24:59;4.53;;;3.07;;
13560;SDS011;6852;51.686;5.314;2023-04-24T06:27:26;5.87;;;3.47;;
13560;SDS011;6852;51.686;5.314;2023-04-24T06:29:53;5.63;;;3.80;;
13560;SDS011;6852;51.686;5.314;2023-04-24T06:32:22;5.93;;;3.00;;
13560;SDS011;6852;51.686;5.314;2023-04-24T06:34:53;4.47;;;2.87;;
13560;SDS011;6852;51.686;5.314;2023-04-24T06:37:20;3.60;;;2.20;;
13560;SDS011;6852;51.686;5.314;2023-04-24T06:39:47;4.23;;;2.93;;
13560;SDS011;6852;51.686;5.314;2023-04-24T06:42:14;5.37;;;3.80;;
13560;SDS011;6852;51.686;5.314;2023-04-24T06:44:40;6.70;;;4.57;;
13560;SDS011;6852;51.686;5.314;2023-04-24T06:47:08;5.97;;;4.60;;
13560;SDS011;6852;51.686;5.314;2023-04-24T06:49:36;8.47;;;5.90;;
13560;SDS011;6852;51.686;5.314;2023-04-24T06:52:03;7.07;;;6.00;;
13560;SDS011;6852;51.686;5.314;2023-04-24T06:54:30;9.53;;;6.13;;
13560;SDS011;6852;51.686;5.314;2023-04-24T06:56:58;7.93;;;6.43;;
13560;SDS011;6852;51.686;5.314;2023-04-24T06:59:27;11.13;;;7.10;;
13560;SDS011;6852;51.686;5.314;2023-04-24T07:01:54;8.60;;;5.03;;
13560;SDS011;6852;51.686;5.314;2023-04-24T07:04:22;13.47;;;8.00;;
13560;SDS011;6852;51.686;5.314;2023-04-24T07:06:51;10.77;;;7.00;;
13560;SDS011;6852;51.686;5.314;2023-04-24T07:09:20;12.80;;;8.33;;
13560;SDS011;6852;51.686;5.314;2023-04-24T07:11:48;11.10;;;7.17;;
13560;SDS011;6852;51.686;5.314;2023-04-24T07:14:15;12.70;;;7.27;;
13560;SDS011;6852;51.686;5.314;2023-04-24T07:16:42;12.83;;;6.63;;
13560;SDS011;6852;51.686;5.314;2023-04-24T07:19:09;12.47;;;7.60;;
13560;SDS011;6852;51.686;5.314;2023-04-24T07:21:36;13.70;;;7.20;;
13560;SDS011;6852;51.686;5.314;2023-04-24T07:24:03;12.10;;;7.53;;
13560;SDS011;6852;51.686;5.314;2023-04-24T07:26:30;10.40;;;6.80;;
13560;SDS011;6852;51.686;5.314;2023-04-24T07:28:57;9.57;;;6.80;;
13560;SDS011;6852;51.686;5.314;2023-04-24T07:31:24;13.17;;;6.43;;
13560;SDS011;6852;51.686;5.314;2023-04-24T07:33:52;12.30;;;6.67;;
13560;SDS011;6852;51.686;5.314;2023-04-24T07:36:18;14.33;;;6.30;;
13560;SDS011;6852;51.686;5.314;2023-04-24T07:38:45;8.50;;;5.33;;
13560;SDS011;6852;51.686;5.314;2023-04-24T07:41:13;10.60;;;5.20;;
13560;SDS011;6852;51.686;5.314;2023-04-24T07:43:40;6.20;;;4.83;;
13560;SDS011;6852;51.686;5.314;2023-04-24T07:46:08;9.67;;;4.63;;
13560;SDS011;6852;51.686;5.314;2023-04-24T07:48:35;12.63;;;4.40;;
13560;SDS011;6852;51.686;5.314;2023-04-24T07:51:03;15.37;;;4.73;;
13560;SDS011;6852;51.686;5.314;2023-04-24T07:53:30;15.83;;;4.27;;
13560;SDS011;6852;51.686;5.314;2023-04-24T07:55:57;7.80;;;4.20;;
13560;SDS011;6852;51.686;5.314;2023-04-24T07:58:23;10.10;;;4.43;;
13560;SDS011;6852;51.686;5.314;2023-04-24T08:00:50;14.47;;;4.30;;
13560;SDS011;6852;51.686;5.314;2023-04-24T08:03:17;18.20;;;5.20;;
13560;SDS011;6852;51.686;5.314;2023-04-24T08:05:46;10.30;;;4.60;;
13560;SDS011;6852;51.686;5.314;2023-04-24T08:08:13;19.33;;;4.50;;
13560;SDS011;6852;51.686;5.314;2023-04-24T08:10:41;15.90;;;4.20;;
13560;SDS011;6852;51.686;5.314;2023-04-24T08:13:07;16.27;;;4.40;;
13560;SDS011;6852;51.686;5.314;2023-04-24T08:15:40;11.38;;;3.85;;
13560;SDS011;6852;51.686;5.314;2023-04-24T08:18:07;8.37;;;3.43;;
13560;SDS011;6852;51.686;5.314;2023-04-24T08:20:34;9.37;;;3.20;;
13560;SDS011;6852;51.686;5.314;2023-04-24T08:23:02;8.00;;;3.33;;
13560;SDS011;6852;51.686;5.314;2023-04-24T08:25:29;9.37;;;3.13;;
13560;SDS011;6852;51.686;5.314;2023-04-24T08:27:56;9.67;;;3.60;;
13560;SDS011;6852;51.686;5.314;2023-04-24T08:30:23;7.90;;;3.30;;
13560;SDS011;6852;51.686;5.314;2023-04-24T08:32:50;8.27;;;3.17;;
13560;SDS011;6852;51.686;5.314;2023-04-24T08:35:17;7.77;;;3.37;;
13560;SDS011;6852;51.686;5.314;2023-04-24T08:37:44;8.47;;;3.00;;
13560;SDS011;6852;51.686;5.314;2023-04-24T08:40:12;9.07;;;3.03;;
13560;SDS011;6852;51.686;5.314;2023-04-24T08:42:44;9.33;;;3.00;;
13560;SDS011;6852;51.686;5.314;2023-04-24T08:45:11;14.17;;;3.33;;
13560;SDS011;6852;51.686;5.314;2023-04-24T08:47:39;10.93;;;2.83;;
13560;SDS011;6852;51.686;5.314;2023-04-24T08:50:08;8.80;;;2.80;;
13560;SDS011;6852;51.686;5.314;2023-04-24T08:52:36;8.90;;;2.57;;
13560;SDS011;6852;51.686;5.314;2023-04-24T08:55:03;13.73;;;2.73;;
13560;SDS011;6852;51.686;5.314;2023-04-24T08:57:30;14.60;;;3.53;;
13560;SDS011;6852;51.686;5.314;2023-04-24T08:59:58;8.10;;;2.63;;
13560;SDS011;6852;51.686;5.314;2023-04-24T09:02:26;12.43;;;3.00;;
13560;SDS011;6852;51.686;5.314;2023-04-24T09:04:53;9.97;;;2.80;;
13560;SDS011;6852;51.686;5.314;2023-04-24T09:07:24;6.17;;;2.23;;
13560;SDS011;6852;51.686;5.314;2023-04-24T09:09:53;9.43;;;2.50;;
13560;SDS011;6852;51.686;5.314;2023-04-24T09:12:21;8.40;;;2.20;;
13560;SDS011;6852;51.686;5.314;2023-04-24T09:14:48;10.17;;;2.43;;
13560;SDS011;6852;51.686;5.314;2023-04-24T09:17:16;8.67;;;2.20;;
13560;SDS011;6852;51.686;5.314;2023-04-24T09:19:43;6.90;;;2.43;;
13560;SDS011;6852;51.686;5.314;2023-04-24T09:22:10;6.43;;;2.63;;
13560;SDS011;6852;51.686;5.314;2023-04-24T09:24:38;4.90;;;1.87;;
13560;SDS011;6852;51.686;5.314;2023-04-24T09:27:05;5.90;;;2.10;;
13560;SDS011;6852;51.686;5.314;2023-04-24T09:29:35;9.63;;;2.27;;
13560;SDS011;6852;51.686;5.314;2023-04-24T09:32:17;8.33;;;1.90;;
13560;SDS011;6852;51.686;5.314;2023-04-24T09:34:49;6.83;;;1.90;;
13560;SDS011;6852;51.686;5.314;2023-04-24T09:37:27;6.03;;;2.20;;
13560;SDS011;6852;51.686;5.314;2023-04-24T09:40:10;5.63;;;1.60;;
13560;SDS011;6852;51.686;5.314;2023-04-24T09:42:38;8.43;;;2.00;;
13560;SDS011;6852;51.686;5.314;2023-04-24T09:45:09;11.17;;;2.40;;
13560;SDS011;6852;51.686;5.314;2023-04-24T09:47:41;6.83;;;2.00;;
13560;SDS011;6852;51.686;5.314;2023-04-24T09:50:12;6.07;;;1.70;;
13560;SDS011;6852;51.686;5.314;2023-04-24T09:52:42;8.30;;;2.93;;
13560;SDS011;6852;51.686;5.314;2023-04-24T09:55:14;9.50;;;1.70;;
13560;SDS011;6852;51.686;5.314;2023-04-24T09:57:49;5.13;;;1.87;;
13560;SDS011;6852;51.686;5.314;2023-04-24T10:00:27;7.53;;;1.97;;
13560;SDS011;6852;51.686;5.314;2023-04-24T10:03:02;3.67;;;1.57;;
13560;SDS011;6852;51.686;5.314;2023-04-24T10:05:32;5.97;;;1.83;;
13560;SDS011;6852;51.686;5.314;2023-04-24T10:08:07;11.67;;;2.27;;
13560;SDS011;6852;51.686;5.314;2023-04-24T10:10:41;5.37;;;1.47;;
13560;SDS011;6852;51.686;5.314;2023-04-24T10:13:09;7.70;;;1.77;;
13560;SDS011;6852;51.686;5.314;2023-04-24T10:15:38;4.53;;;1.50;;
13560;SDS011;6852;51.686;5.314;2023-04-24T10:18:07;5.13;;;1.63;;
13560;SDS011;6852;51.686;5.314;2023-04-24T10:20:36;1.97;;;1.23;;
13560;SDS011;6852;51.686;5.314;2023-04-24T10:23:04;3.30;;;1.23;;
13560;SDS011;6852;51.686;5.314;2023-04-24T10:25:35;9.57;;;1.53;;
13560;SDS011;6852;51.686;5.314;2023-04-24T10:28:03;2.53;;;1.30;;
13560;SDS011;6852;51.686;5.314;2023-04-24T10:30:32;3.23;;;1.30;;
13560;SDS011;6852;51.686;5.314;2023-04-24T10:33:04;2.50;;;1.10;;
13560;SDS011;6852;51.686;5.314;2023-04-24T10:35:37;2.70;;;1.00;;
13560;SDS011;6852;51.686;5.314;2023-04-24T10:38:08;3.53;;;1.10;;
13560;SDS011;6852;51.686;5.314;2023-04-24T10:40:38;2.70;;;1.10;;
13560;SDS011;6852;51.686;5.314;2023-04-24T10:43:06;3.10;;;1.10;;
13560;SDS011;6852;51.686;5.314;2023-04-24T10:45:35;6.73;;;1.07;;
13560;SDS011;6852;51.686;5.314;2023-04-24T10:48:04;4.07;;;1.10;;
13560;SDS011;6852;51.686;5.314;2023-04-24T10:50:47;1.77;;;0.80;;
13560;SDS011;6852;51.686;5.314;2023-04-24T10:53:18;1.13;;;0.60;;
13560;SDS011;6852;51.686;5.314;2023-04-24T10:55:51;1.63;;;0.60;;
13560;SDS011;6852;51.686;5.314;2023-04-24T10:58:24;2.97;;;0.60;;
13560;SDS011;6852;51.686;5.314;2023-04-24T11:01:07;2.20;;;0.60;;
13560;SDS011;6852;51.686;5.314;2023-04-24T11:03:34;2.33;;;0.80;;
13560;SDS011;6852;51.686;5.314;2023-04-24T11:06:04;1.70;;;0.80;;
13560;SDS011;6852;51.686;5.314;2023-04-24T11:08:45;3.23;;;1.10;;
13560;SDS011;6852;51.686;5.314;2023-04-24T11:11:16;1.57;;;0.70;;
13560;SDS011;6852;51.686;5.314;2023-04-24T11:16:21;0.97;;;0.60;;
13560;SDS011;6852;51.686;5.314;2023-04-24T11:21:31;4.47;;;0.67;;
13560;SDS011;6852;51.686;5.314;2023-04-24T11:24:26;1.70;;;0.90;;
13560;SDS011;6852;51.686;5.314;2023-04-24T11:26:58;0.83;;;0.60;;
13560;SDS011;6852;51.686;5.314;2023-04-24T11:32:26;1.10;;;0.67;;
13560;SDS011;6852;51.686;5.314;2023-04-24T11:35:01;2.57;;;0.70;;
13560;SDS011;6852;51.686;5.314;2023-04-24T11:37:29;4.60;;;0.83;;
13560;SDS011;6852;51.686;5.314;2023-04-24T11:40:05;2.17;;;0.90;;
13560;SDS011;6852;51.686;5.314;2023-04-24T11:42:40;2.63;;;1.33;;
13560;SDS011;6852;51.686;5.314;2023-04-24T11:45:09;4.37;;;0.60;;
13560;SDS011;6852;51.686;5.314;2023-04-24T11:47:38;2.77;;;0.97;;
13560;SDS011;6852;51.686;5.314;2023-04-24T11:50:06;2.47;;;0.80;;
13560;SDS011;6852;51.686;5.314;2023-04-24T11:52:38;4.17;;;1.00;;
13560;SDS011;6852;51.686;5.314;2023-04-24T11:57:46;2.13;;;1.00;;
13560;SDS011;6852;51.686;5.314;2023-04-24T12:00:21;2.10;;;0.87;;
13560;SDS011;6852;51.686;5.314;2023-04-24T12:03:05;9.67;;;2.13;;
13560;SDS011;6852;51.686;5.314;2023-04-24T12:05:34;4.53;;;1.03;;
13560;SDS011;6852;51.686;5.314;2023-04-24T12:08:02;2.97;;;1.00;;
13560;SDS011;6852;51.686;5.314;2023-04-24T12:10:30;1.13;;;0.73;;
13560;SDS011;6852;51.686;5.314;2023-04-24T12:12:58;3.77;;;1.37;;
13560;SDS011;6852;51.686;5.314;2023-04-24T12:15:26;3.20;;;0.70;;
13560;SDS011;6852;51.686;5.314;2023-04-24T12:17:53;6.37;;;3.13;;
13560;SDS011;6852;51.686;5.314;2023-04-24T12:20:28;2.10;;;1.40;;
13560;SDS011;6852;51.686;5.314;2023-04-24T12:22:57;1.47;;;0.80;;
13560;SDS011;6852;51.686;5.314;2023-04-24T12:25:26;6.83;;;0.97;;
13560;SDS011;6852;51.686;5.314;2023-04-24T12:30:31;2.93;;;1.30;;
13560;SDS011;6852;51.686;5.314;2023-04-24T12:33:00;2.30;;;0.83;;
13560;SDS011;6852;51.686;5.314;2023-04-24T12:35:30;2.77;;;1.13;;
13560;SDS011;6852;51.686;5.314;2023-04-24T12:38:06;6.60;;;1.10;;
13560;SDS011;6852;51.686;5.314;2023-04-24T12:40:34;1.53;;;0.83;;
13560;SDS011;6852;51.686;5.314;2023-04-24T12:43:13;2.13;;;0.80;;
13560;SDS011;6852;51.686;5.314;2023-04-24T12:45:41;2.13;;;1.00;;
13560;SDS011;6852;51.686;5.314;2023-04-24T12:48:08;1.07;;;0.83;;
13560;SDS011;6852;51.686;5.314;2023-04-24T12:50:35;3.30;;;1.00;;
13560;SDS011;6852;51.686;5.314;2023-04-24T12:53:02;1.63;;;0.97;;
13560;SDS011;6852;51.686;5.314;2023-04-24T12:55:29;3.80;;;1.47;;
13560;SDS011;6852;51.686;5.314;2023-04-24T12:57:56;2.43;;;0.70;;
13560;SDS011;6852;51.686;5.314;2023-04-24T13:00:24;2.90;;;0.90;;
13560;SDS011;6852;51.686;5.314;2023-04-24T13:02:51;2.20;;;0.80;;
13560;SDS011;6852;51.686;5.314;2023-04-24T13:05:18;3.27;;;0.70;;
13560;SDS011;6852;51.686;5.314;2023-04-24T13:07:45;4.10;;;1.37;;
13560;SDS011;6852;51.686;5.314;2023-04-24T13:10:12;3.67;;;1.50;;
13560;SDS011;6852;51.686;5.314;2023-04-24T13:12:39;1.90;;;1.40;;
13560;SDS011;6852;51.686;5.314;2023-04-24T13:15:06;2.70;;;1.10;;
13560;SDS011;6852;51.686;5.314;2023-04-24T13:17:33;2.10;;;1.00;;
13560;SDS011;6852;51.686;5.314;2023-04-24T13:20:01;3.63;;;1.00;;
13560;SDS011;6852;51.686;5.314;2023-04-24T13:22:28;3.40;;;1.20;;
13560;SDS011;6852;51.686;5.314;2023-04-24T13:24:55;4.40;;;1.20;;
13560;SDS011;6852;51.686;5.314;2023-04-24T13:27:23;1.70;;;1.17;;
13560;SDS011;6852;51.686;5.314;2023-04-24T13:29:50;4.40;;;1.47;;
13560;SDS011;6852;51.686;5.314;2023-04-24T13:32:17;2.97;;;1.40;;
13560;SDS011;6852;51.686;5.314;2023-04-24T13:34:44;3.73;;;0.87;;
13560;SDS011;6852;51.686;5.314;2023-04-24T13:37:11;2.40;;;0.80;;
13560;SDS011;6852;51.686;5.314;2023-04-24T13:39:38;2.40;;;0.90;;
13560;SDS011;6852;51.686;5.314;2023-04-24T13:42:05;3.03;;;0.90;;
13560;SDS011;6852;51.686;5.314;2023-04-24T13:44:32;2.07;;;0.80;;
13560;SDS011;6852;51.686;5.314;2023-04-24T13:46:59;2.83;;;0.90;;
13560;SDS011;6852;51.686;5.314;2023-04-24T13:49:26;2.37;;;0.83;;
13560;SDS011;6852;51.686;5.314;2023-04-24T13:51:54;2.37;;;1.07;;
13560;SDS011;6852;51.686;5.314;2023-04-24T13:54:21;5.20;;;0.83;;
13560;SDS011;6852;51.686;5.314;2023-04-24T13:56:52;3.13;;;0.90;;
13560;SDS011;6852;51.686;5.314;2023-04-24T13:59:21;3.20;;;0.80;;
13560;SDS011;6852;51.686;5.314;2023-04-24T14:01:48;3.30;;;1.00;;
13560;SDS011;6852;51.686;5.314;2023-04-24T14:04:15;4.03;;;0.87;;
13560;SDS011;6852;51.686;5.314;2023-04-24T14:06:43;3.67;;;1.10;;
13560;SDS011;6852;51.686;5.314;2023-04-24T14:09:10;2.83;;;1.83;;
13560;SDS011;6852;51.686;5.314;2023-04-24T14:11:37;2.77;;;1.47;;
13560;SDS011;6852;51.686;5.314;2023-04-24T14:14:04;2.87;;;1.50;;
13560;SDS011;6852;51.686;5.314;2023-04-24T14:16:31;5.90;;;1.80;;
13560;SDS011;6852;51.686;5.314;2023-04-24T14:18:58;3.63;;;1.40;;
13560;SDS011;6852;51.686;5.314;2023-04-24T14:21:25;3.07;;;1.33;;
13560;SDS011;6852;51.686;5.314;2023-04-24T14:23:52;5.73;;;1.40;;
13560;SDS011;6852;51.686;5.314;2023-04-24T14:26:19;5.67;;;1.77;;
13560;SDS011;6852;51.686;5.314;2023-04-24T14:28:46;6.93;;;1.47;;
13560;SDS011;6852;51.686;5.314;2023-04-24T14:31:13;4.77;;;1.60;;
13560;SDS011;6852;51.686;5.314;2023-04-24T14:33:40;4.20;;;1.53;;
13560;SDS011;6852;51.686;5.314;2023-04-24T14:36:07;5.80;;;1.63;;
13560;SDS011;6852;51.686;5.314;2023-04-24T14:38:34;6.30;;;1.97;;
13560;SDS011;6852;51.686;5.314;2023-04-24T14:41:01;3.47;;;1.60;;
13560;SDS011;6852;51.686;5.314;2023-04-24T14:43:38;4.73;;;1.70;;
13560;SDS011;6852;51.686;5.314;2023-04-24T14:46:05;4.93;;;1.70;;
13560;SDS011;6852;51.686;5.314;2023-04-24T14:48:32;3.93;;;1.73;;
13560;SDS011;6852;51.686;5.314;2023-04-24T14:50:58;5.33;;;2.10;;
13560;SDS011;6852;51.686;5.314;2023-04-24T14:53:25;1.40;;;1.10;;
13560;SDS011;6852;51.686;5.314;2023-04-24T14:55:53;3.40;;;1.60;;
13560;SDS011;6852;51.686;5.314;2023-04-24T14:58:20;7.07;;;1.93;;
13560;SDS011;6852;51.686;5.314;2023-04-24T15:00:47;3.40;;;1.47;;
13560;SDS011;6852;51.686;5.314;2023-04-24T15:03:18;3.60;;;1.40;;
13560;SDS011;6852;51.686;5.314;2023-04-24T15:05:45;6.63;;;2.10;;
13560;SDS011;6852;51.686;5.314;2023-04-24T15:08:13;2.23;;;1.60;;
13560;SDS011;6852;51.686;5.314;2023-04-24T15:10:40;5.73;;;1.90;;